createdAt,value
2023-03-21T00:01:32.941Z,3.13
2023-03-21T00:04:00.403Z,3.03
2023-03-21T00:06:27.937Z,3.07
2023-03-21T00:08:55.556Z,3.10
2023-03-21T00:11:22.909Z,2.90
2023-03-21T00:13:50.238Z,3.20
2023-03-21T00:16:21.858Z,3.10
2023-03-21T00:18:50.768Z,3.00
2023-03-21T00:21:41.040Z,4.00
2023-03-21T00:23:48.767Z,3.60
2023-03-21T00:26:17.139Z,3.60
2023-03-21T00:28:44.925Z,3.37
2023-03-21T00:31:12.272Z,3.40
2023-03-21T00:33:39.698Z,3.30
2023-03-21T00:36:08.336Z,3.20
2023-03-21T00:38:36.750Z,3.50
2023-03-21T00:41:18.832Z,3.80
2023-03-21T00:43:34.514Z,3.43
2023-03-21T00:46:02.944Z,3.60
2023-03-21T00:48:30.322Z,3.43
2023-03-21T00:50:59.265Z,3.33
2023-03-21T00:53:27.808Z,3.20
2023-03-21T00:55:55.354Z,3.40
2023-03-21T00:58:22.701Z,3.60
2023-03-21T01:00:50.336Z,3.37
2023-03-21T01:03:24.793Z,2.80
2023-03-21T01:06:04.484Z,3.23
2023-03-21T01:08:48.525Z,2.93
2023-03-21T01:11:04.320Z,3.87
2023-03-21T01:13:33.096Z,3.37
2023-03-21T01:16:01.598Z,3.30
2023-03-21T01:18:30.142Z,4.00
2023-03-21T01:20:58.670Z,4.07
2023-03-21T01:23:26.272Z,4.47
2023-03-21T01:25:54.193Z,4.20
2023-03-21T01:28:21.564Z,3.80
2023-03-21T01:30:50.384Z,4.23
2023-03-21T01:33:18.798Z,3.83
2023-03-21T01:35:53.456Z,4.00
2023-03-21T01:38:15.692Z,4.63
2023-03-21T01:40:44.743Z,4.63
2023-03-21T01:43:13.604Z,4.53
2023-03-21T01:45:59.319Z,4.20
2023-03-21T01:48:27.431Z,4.53
2023-03-21T01:50:54.953Z,4.80
2023-03-21T01:53:23.993Z,5.00
2023-03-21T01:55:51.437Z,4.40
2023-03-21T01:58:19.496Z,4.93
2023-03-21T02:00:50.998Z,4.53
2023-03-21T02:03:29.555Z,4.73
2023-03-21T02:05:58.149Z,4.30
2023-03-21T02:08:38.351Z,4.80
2023-03-21T02:10:55.764Z,5.00
2023-03-21T02:13:23.092Z,4.77
2023-03-21T02:15:51.991Z,5.00
2023-03-21T02:18:20.875Z,4.60
2023-03-21T02:21:05.053Z,5.20
2023-03-21T02:23:39.720Z,5.30
2023-03-21T02:26:17.212Z,5.83
2023-03-21T02:28:52.387Z,5.13
2023-03-21T02:31:28.253Z,6.57
2023-03-21T02:34:02.928Z,5.60
2023-03-21T02:36:50.064Z,5.27
2023-03-21T02:39:23.319Z,5.30
2023-03-21T02:42:07.197Z,5.10
2023-03-21T02:44:36.078Z,5.50
2023-03-21T02:47:06.663Z,4.97
2023-03-21T02:49:38.303Z,4.93
2023-03-21T02:52:15.567Z,5.63
2023-03-21T02:54:47.536Z,5.07
2023-03-21T02:57:07.597Z,5.00
2023-03-21T02:59:41.733Z,5.13
2023-03-21T03:02:05.574Z,5.33
2023-03-21T03:04:32.989Z,5.53
2023-03-21T03:07:14.237Z,4.90
2023-03-21T03:09:45.781Z,4.40
2023-03-21T03:12:17.559Z,4.83
2023-03-21T03:15:00.181Z,5.37
2023-03-21T03:17:20.367Z,4.83
2023-03-21T03:20:07.129Z,4.50
2023-03-21T03:22:31.992Z,4.63
2023-03-21T03:25:04.835Z,4.60
2023-03-21T03:27:31.969Z,5.07
2023-03-21T03:30:01.105Z,4.90
2023-03-21T03:32:38.673Z,4.60
2023-03-21T03:35:06.865Z,4.70
2023-03-21T03:37:34.966Z,4.97
2023-03-21T03:40:20.710Z,5.10
2023-03-21T03:42:49.604Z,5.03
2023-03-21T03:45:17.132Z,5.40
2023-03-21T03:47:56.826Z,4.20
2023-03-21T03:50:19.221Z,5.07
2023-03-21T03:52:56.139Z,4.30
2023-03-21T03:55:18.150Z,5.07
2023-03-21T03:57:45.660Z,4.37
2023-03-21T04:00:13.634Z,4.77
2023-03-21T04:02:40.994Z,5.43
2023-03-21T04:05:08.682Z,5.23
2023-03-21T04:07:36.026Z,4.73
2023-03-21T04:10:04.917Z,4.63
2023-03-21T04:12:32.261Z,4.70
2023-03-21T04:15:08.149Z,5.90
2023-03-21T04:17:28.609Z,5.40
2023-03-21T04:20:05.385Z,5.97
2023-03-21T04:22:25.607Z,5.50
2023-03-21T04:24:53.082Z,4.90
2023-03-21T04:27:20.611Z,6.20
2023-03-21T04:29:48.422Z,5.70
2023-03-21T04:32:19.754Z,6.87
2023-03-21T04:34:50.110Z,5.20
2023-03-21T04:37:18.784Z,6.73
2023-03-21T04:39:47.839Z,6.90
2023-03-21T04:42:16.029Z,6.73
2023-03-21T04:44:43.468Z,6.57
2023-03-21T04:47:12.442Z,6.20
2023-03-21T04:49:40.170Z,6.17
2023-03-21T04:52:07.521Z,6.50
2023-03-21T04:54:35.256Z,6.10
2023-03-21T04:57:03.534Z,6.57
2023-03-21T04:59:31.504Z,6.60
2023-03-21T05:01:59.104Z,6.73
2023-03-21T05:04:27.667Z,6.17
2023-03-21T05:06:55.780Z,6.33
2023-03-21T05:09:23.128Z,6.60
2023-03-21T05:11:50.885Z,6.20
2023-03-21T05:14:20.012Z,6.20
2023-03-21T05:16:55.637Z,5.97
2023-03-21T05:19:24.535Z,6.10
2023-03-21T05:21:51.884Z,6.33
2023-03-21T05:24:20.826Z,6.53
2023-03-21T05:26:52.177Z,6.07
2023-03-21T05:29:19.927Z,6.57
2023-03-21T05:31:47.257Z,5.63
2023-03-21T05:34:14.686Z,5.27
2023-03-21T05:36:42.014Z,5.87
2023-03-21T05:39:09.378Z,5.07
2023-03-21T05:41:36.759Z,5.43
2023-03-21T05:44:04.106Z,6.07
2023-03-21T05:46:31.568Z,5.20
2023-03-21T05:48:58.912Z,4.70
2023-03-21T05:51:26.257Z,5.13
2023-03-21T05:53:53.604Z,5.20
2023-03-21T05:56:20.993Z,5.20
2023-03-21T05:58:48.344Z,4.63
2023-03-21T06:01:15.716Z,4.70
2023-03-21T06:03:43.149Z,4.43
2023-03-21T06:06:10.741Z,5.30
2023-03-21T06:08:38.084Z,4.57
2023-03-21T06:11:05.710Z,5.23
2023-03-21T06:13:33.048Z,5.10
2023-03-21T06:16:01.333Z,4.83
2023-03-21T06:18:28.708Z,5.50
2023-03-21T06:20:57.214Z,4.83
2023-03-21T06:23:24.779Z,4.80
2023-03-21T06:25:52.322Z,4.83
2023-03-21T06:28:19.593Z,4.50
2023-03-21T06:30:46.929Z,4.90
2023-03-21T06:33:14.283Z,4.67
2023-03-21T06:35:41.669Z,4.70
2023-03-21T06:38:09.139Z,5.47
2023-03-21T06:40:38.131Z,5.00
2023-03-21T06:43:05.430Z,4.73
2023-03-21T06:45:32.933Z,5.20
2023-03-21T06:48:00.445Z,5.30
2023-03-21T06:50:27.833Z,5.23
2023-03-21T06:52:56.822Z,4.97
2023-03-21T06:55:25.795Z,5.47
2023-03-21T06:57:53.723Z,5.20
2023-03-21T07:00:21.463Z,5.13
2023-03-21T07:02:51.323Z,4.73
2023-03-21T07:05:18.759Z,5.10
2023-03-21T07:07:46.570Z,4.53
2023-03-21T07:10:13.914Z,5.90
2023-03-21T07:12:41.601Z,5.40
2023-03-21T07:15:09.396Z,5.00
2023-03-21T07:17:36.917Z,5.60
2023-03-21T07:20:09.065Z,5.57
2023-03-21T07:22:36.586Z,5.70
2023-03-21T07:25:05.663Z,5.07
2023-03-21T07:27:33.140Z,5.60
2023-03-21T07:30:01.037Z,5.40
2023-03-21T07:32:29.743Z,5.30
2023-03-21T07:34:57.056Z,6.00
2023-03-21T07:37:24.399Z,5.90
2023-03-21T07:39:51.851Z,5.10
2023-03-21T07:42:20.226Z,4.97
2023-03-21T07:44:47.588Z,5.37
2023-03-21T07:47:15.008Z,5.30
2023-03-21T07:49:46.568Z,5.80
2023-03-21T07:52:13.876Z,5.30
2023-03-21T07:54:41.214Z,4.77
2023-03-21T07:57:08.572Z,6.13
2023-03-21T07:59:35.897Z,5.73
2023-03-21T08:02:03.461Z,5.80
2023-03-21T08:04:30.749Z,5.30
2023-03-21T08:06:58.115Z,5.33
2023-03-21T08:09:25.492Z,5.30
2023-03-21T08:11:52.783Z,5.40
2023-03-21T08:14:20.118Z,5.17
2023-03-21T08:16:47.510Z,5.40
2023-03-21T08:19:15.857Z,5.10
2023-03-21T08:21:43.453Z,5.13
2023-03-21T08:24:10.797Z,5.37
2023-03-21T08:26:38.505Z,5.90
2023-03-21T08:29:06.089Z,5.20
2023-03-21T08:31:33.438Z,5.87
2023-03-21T08:34:00.858Z,5.40
2023-03-21T08:36:28.466Z,5.00
2023-03-21T08:38:57.425Z,4.93
2023-03-21T08:41:25.878Z,5.50
2023-03-21T08:43:53.182Z,5.20
2023-03-21T08:46:20.617Z,4.40
2023-03-21T08:48:47.984Z,5.50
2023-03-21T08:51:15.459Z,4.90
2023-03-21T08:53:43.924Z,5.30
2023-03-21T08:56:11.934Z,5.47
2023-03-21T08:58:39.427Z,5.10
2023-03-21T09:01:11.292Z,5.33
2023-03-21T09:03:39.362Z,5.63
2023-03-21T09:06:08.404Z,5.30
2023-03-21T09:08:35.739Z,5.03
2023-03-21T09:11:03.076Z,6.13
2023-03-21T09:13:30.407Z,5.60
2023-03-21T09:15:59.381Z,5.30
2023-03-21T09:18:28.416Z,6.00
2023-03-21T09:20:56.426Z,5.07
2023-03-21T09:23:24.129Z,5.40
2023-03-21T09:25:51.879Z,5.30
2023-03-21T09:28:19.491Z,5.40
2023-03-21T09:30:47.147Z,5.20
2023-03-21T09:33:16.125Z,5.30
2023-03-21T09:35:43.839Z,5.37
2023-03-21T09:38:11.179Z,6.27
2023-03-21T09:40:41.152Z,6.20
2023-03-21T09:43:20.175Z,5.40
2023-03-21T09:45:50.212Z,5.47
2023-03-21T09:48:19.983Z,4.83
2023-03-21T09:50:48.387Z,5.80
2023-03-21T09:53:20.799Z,4.87
2023-03-21T09:55:48.078Z,5.47
2023-03-21T09:58:17.211Z,5.30
2023-03-21T10:00:47.317Z,5.23
2023-03-21T10:03:19.337Z,4.93
2023-03-21T10:05:47.308Z,5.23
2023-03-21T10:08:26.571Z,4.27
2023-03-21T10:10:58.551Z,4.20
2023-03-21T10:13:27.437Z,4.57
2023-03-21T10:15:58.740Z,4.40
2023-03-21T10:18:27.837Z,4.67
2023-03-21T10:20:55.721Z,4.47
2023-03-21T10:23:24.601Z,5.70
2023-03-21T10:25:53.530Z,5.03
2023-03-21T10:28:25.598Z,6.00
2023-03-21T10:30:58.167Z,5.60
2023-03-21T10:33:27.147Z,4.80
2023-03-21T10:35:56.079Z,5.43
2023-03-21T10:38:24.738Z,5.63
2023-03-21T10:40:52.036Z,5.50
2023-03-21T10:43:22.044Z,6.00
2023-03-21T10:45:49.702Z,5.50
2023-03-21T10:48:17.438Z,6.10
2023-03-21T10:50:46.866Z,5.60
2023-03-21T10:53:15.784Z,6.10
2023-03-21T10:55:44.882Z,5.70
2023-03-21T10:58:15.404Z,6.10
2023-03-21T11:00:44.837Z,6.80
2023-03-21T11:03:16.926Z,6.40
2023-03-21T11:05:44.825Z,5.90
2023-03-21T11:08:13.686Z,5.60
2023-03-21T11:10:55.034Z,6.80
2023-03-21T11:13:29.845Z,6.93
2023-03-21T11:15:58.800Z,6.60
2023-03-21T11:18:27.186Z,6.37
2023-03-21T11:20:55.602Z,6.03
2023-03-21T11:23:24.544Z,5.70
2023-03-21T11:25:52.165Z,6.53
2023-03-21T11:28:21.384Z,6.87
2023-03-21T11:30:59.029Z,6.80
2023-03-21T11:33:27.925Z,6.77
2023-03-21T11:36:02.612Z,7.47
2023-03-21T11:38:31.586Z,6.73
2023-03-21T11:41:00.696Z,7.00
2023-03-21T11:43:29.628Z,7.70
2023-03-21T11:46:01.616Z,6.13
2023-03-21T11:48:29.448Z,6.10
2023-03-21T11:50:58.332Z,7.07
2023-03-21T11:53:27.762Z,6.47
2023-03-21T11:56:08.640Z,5.40
2023-03-21T11:58:40.524Z,6.33
2023-03-21T12:01:12.848Z,6.20
2023-03-21T12:03:48.449Z,6.30
2023-03-21T12:06:15.148Z,5.33
2023-03-21T12:08:44.005Z,5.10
2023-03-21T12:11:25.943Z,5.07
2023-03-21T12:13:54.968Z,4.60
2023-03-21T12:16:23.921Z,4.00
2023-03-21T12:18:55.874Z,5.03
2023-03-21T12:21:41.566Z,5.00
2023-03-21T12:24:13.177Z,5.20
2023-03-21T12:26:45.347Z,4.85
2023-03-21T12:29:20.735Z,4.90
2023-03-21T12:32:06.555Z,4.87
2023-03-21T12:34:52.346Z,4.93
2023-03-21T12:37:37.933Z,5.63
2023-03-21T12:40:23.804Z,5.20
2023-03-21T12:42:59.030Z,6.47
2023-03-21T12:45:34.202Z,5.97
2023-03-21T12:47:58.844Z,6.13
2023-03-21T12:50:27.703Z,6.90
2023-03-21T12:52:56.613Z,6.37
2023-03-21T12:55:25.487Z,6.57
2023-03-21T12:58:06.441Z,7.00
2023-03-21T13:00:35.574Z,6.93
2023-03-21T13:03:05.278Z,7.30
2023-03-21T13:05:34.173Z,7.00
2023-03-21T13:08:03.032Z,6.87
2023-03-21T13:10:30.978Z,6.83
2023-03-21T13:13:15.383Z,7.03
2023-03-21T13:15:48.343Z,7.40
2023-03-21T13:18:20.122Z,8.00
2023-03-21T13:20:51.763Z,7.57
2023-03-21T13:23:20.625Z,8.30
2023-03-21T13:25:49.732Z,8.17
2023-03-21T13:28:21.320Z,8.50
2023-03-21T13:30:49.140Z,8.43
2023-03-21T13:33:18.097Z,8.23
2023-03-21T13:35:46.168Z,11.33
2023-03-21T13:38:19.072Z,9.93
2023-03-21T13:40:53.705Z,8.90
2023-03-21T13:43:39.363Z,9.33
2023-03-21T13:46:08.314Z,8.33
2023-03-21T13:48:49.434Z,8.50
2023-03-21T13:51:12.596Z,9.00
2023-03-21T13:53:41.168Z,9.10
2023-03-21T13:56:18.986Z,8.73
2023-03-21T13:58:47.885Z,10.50
2023-03-21T14:01:33.149Z,9.60
2023-03-21T14:04:07.718Z,10.20
2023-03-21T14:06:36.585Z,9.80
2023-03-21T14:09:04.988Z,9.93
2023-03-21T14:11:33.033Z,11.50
2023-03-21T14:14:01.673Z,9.80
2023-03-21T14:16:29.646Z,9.83
2023-03-21T14:18:58.534Z,9.07
2023-03-21T14:21:28.001Z,15.20
2023-03-21T14:24:00.035Z,11.30
2023-03-21T14:26:28.892Z,10.13
2023-03-21T14:28:56.360Z,10.80
2023-03-21T14:31:24.018Z,9.47
2023-03-21T14:33:58.770Z,9.73
2023-03-21T14:36:28.062Z,9.97
2023-03-21T14:38:56.929Z,9.00
2023-03-21T14:41:28.835Z,10.27
2023-03-21T14:44:06.979Z,10.27
2023-03-21T14:46:34.360Z,10.70
2023-03-21T14:49:14.792Z,9.60
2023-03-21T14:51:42.476Z,9.43
2023-03-21T14:54:11.337Z,10.70
2023-03-21T14:56:39.353Z,10.03
2023-03-21T14:59:08.584Z,8.43
2023-03-21T15:01:36.246Z,8.90
2023-03-21T15:04:05.318Z,8.90
2023-03-21T15:06:33.166Z,9.80
2023-03-21T15:09:01.774Z,10.90
2023-03-21T15:11:30.715Z,11.53
2023-03-21T15:13:59.610Z,10.67
2023-03-21T15:16:27.073Z,11.90
2023-03-21T15:18:54.546Z,11.07
2023-03-21T15:21:23.439Z,11.90
2023-03-21T15:23:52.304Z,11.60
2023-03-21T15:26:20.891Z,12.53
2023-03-21T15:28:49.762Z,13.43
2023-03-21T15:31:18.730Z,13.10
2023-03-21T15:33:47.620Z,14.90
2023-03-21T15:36:16.566Z,12.90
2023-03-21T15:38:45.628Z,14.07
2023-03-21T15:41:23.323Z,14.37
2023-03-21T15:44:04.473Z,15.63
2023-03-21T15:46:33.674Z,13.63
2023-03-21T15:49:08.059Z,16.70
2023-03-21T15:51:35.731Z,15.83
2023-03-21T15:54:03.939Z,17.07
2023-03-21T15:56:34.505Z,16.00
2023-03-21T15:59:03.475Z,15.43
2023-03-21T16:01:34.473Z,15.83
2023-03-21T16:04:08.981Z,15.50
2023-03-21T16:06:37.854Z,14.70
2023-03-21T16:09:06.724Z,15.30
2023-03-21T16:11:38.507Z,15.50
2023-03-21T16:14:05.819Z,16.17
2023-03-21T16:16:33.397Z,14.60
2023-03-21T16:19:01.441Z,15.30
2023-03-21T16:21:30.423Z,16.13
2023-03-21T16:23:58.026Z,15.77
2023-03-21T16:26:27.335Z,17.47
2023-03-21T16:28:55.197Z,15.47
2023-03-21T16:31:24.133Z,16.60
2023-03-21T16:33:51.753Z,15.23
2023-03-21T16:36:23.498Z,15.60
2023-03-21T16:38:52.635Z,16.30
2023-03-21T16:41:20.686Z,14.13
2023-03-21T16:43:48.315Z,14.97
2023-03-21T16:46:16.675Z,13.70
2023-03-21T16:48:45.218Z,13.20
2023-03-21T16:51:14.145Z,15.30
2023-03-21T16:53:41.487Z,12.87
2023-03-21T16:56:10.955Z,13.57
2023-03-21T16:58:38.285Z,14.47
2023-03-21T17:01:06.342Z,12.20
2023-03-21T17:03:34.216Z,12.97
2023-03-21T17:06:01.586Z,12.83
2023-03-21T17:08:30.599Z,14.37
2023-03-21T17:10:59.675Z,13.50
2023-03-21T17:13:27.039Z,12.40
2023-03-21T17:15:54.374Z,12.80
2023-03-21T17:18:21.729Z,13.27
2023-03-21T17:20:49.048Z,13.53
2023-03-21T17:23:16.484Z,12.53
2023-03-21T17:25:43.812Z,12.97
2023-03-21T17:28:11.193Z,13.87
2023-03-21T17:30:39.867Z,15.03
2023-03-21T17:33:07.658Z,14.47
2023-03-21T17:35:35.123Z,15.10
2023-03-21T17:38:02.700Z,16.40
2023-03-21T17:40:31.305Z,16.70
2023-03-21T17:43:00.827Z,17.40
2023-03-21T17:45:28.195Z,17.40
2023-03-21T17:47:55.696Z,18.37
2023-03-21T17:50:24.700Z,18.77
2023-03-21T17:52:52.481Z,18.57
2023-03-21T17:55:21.200Z,18.63
2023-03-21T17:57:49.645Z,18.23
2023-03-21T18:00:22.529Z,19.67
2023-03-21T18:02:50.314Z,19.93
2023-03-21T18:05:17.778Z,22.63
2023-03-21T18:08:08.796Z,19.90
2023-03-21T18:10:15.980Z,20.40
2023-03-21T18:12:43.788Z,20.03
2023-03-21T18:15:14.582Z,20.50
2023-03-21T18:17:40.181Z,17.73
2023-03-21T18:20:10.345Z,18.70
2023-03-21T18:22:37.769Z,19.33
2023-03-21T18:25:05.791Z,18.43
2023-03-21T18:27:33.381Z,17.70
2023-03-21T18:32:30.047Z,16.90
2023-03-21T18:34:59.443Z,15.43
2023-03-21T18:37:30.415Z,16.30
2023-03-21T18:39:58.567Z,18.83
2023-03-21T18:42:29.849Z,18.00
2023-03-21T18:44:55.353Z,17.17
2023-03-21T18:47:22.938Z,18.17
2023-03-21T18:50:14.138Z,18.37
2023-03-21T18:52:20.708Z,18.60
2023-03-21T18:54:48.803Z,18.87
2023-03-21T18:57:35.920Z,19.30
2023-03-21T18:59:46.797Z,17.30
2023-03-21T19:02:15.590Z,17.73
2023-03-21T19:04:43.251Z,19.80
2023-03-21T19:07:10.886Z,18.43
2023-03-21T19:12:07.300Z,17.10
2023-03-21T19:14:34.663Z,18.33
2023-03-21T19:17:53.450Z,18.43
2023-03-21T19:19:31.504Z,17.73
2023-03-21T19:21:58.896Z,17.57
2023-03-21T19:24:28.804Z,18.03
2023-03-21T19:26:56.254Z,19.50
2023-03-21T19:29:23.567Z,17.90
2023-03-21T19:31:51.422Z,17.27
2023-03-21T19:34:18.825Z,17.90
2023-03-21T19:36:51.483Z,17.77
2023-03-21T19:39:16.970Z,17.57
2023-03-21T19:41:44.540Z,19.30
2023-03-21T19:44:12.277Z,18.90
2023-03-21T19:46:39.632Z,18.03
2023-03-21T19:49:07.002Z,17.30
2023-03-21T19:51:34.513Z,17.67
2023-03-21T19:54:03.791Z,17.50
2023-03-21T19:56:31.919Z,18.50
2023-03-21T19:59:01.757Z,19.70
2023-03-21T20:01:29.118Z,19.37
2023-03-21T20:03:56.562Z,18.47
2023-03-21T20:06:24.096Z,18.20
2023-03-21T20:11:21.246Z,18.43
2023-03-21T20:13:49.563Z,18.37
2023-03-21T20:16:18.215Z,17.30
2023-03-21T20:18:46.015Z,18.40
2023-03-21T20:21:17.991Z,19.00
2023-03-21T20:23:43.785Z,19.43
2023-03-21T20:26:13.150Z,17.47
2023-03-21T20:28:54.830Z,19.13
2023-03-21T20:31:09.868Z,17.20
2023-03-21T20:33:37.267Z,17.40
2023-03-21T20:36:37.752Z,17.60
2023-03-21T20:38:37.009Z,19.07
2023-03-21T20:41:05.587Z,18.37
2023-03-21T20:46:06.777Z,16.70
2023-03-21T20:48:34.385Z,18.90
2023-03-21T20:52:00.016Z,15.50
2023-03-21T20:53:37.332Z,15.90
2023-03-21T20:56:05.139Z,17.27
2023-03-21T20:58:59.016Z,17.23
2023-03-21T21:01:04.640Z,16.80
2023-03-21T21:03:33.799Z,16.43
2023-03-21T21:06:01.220Z,19.13
2023-03-21T21:08:30.251Z,18.23
2023-03-21T21:11:49.902Z,19.00
2023-03-21T21:13:27.670Z,19.83
2023-03-21T21:15:55.350Z,19.07
2023-03-21T21:18:22.666Z,17.80
2023-03-21T21:20:56.980Z,19.03
2023-03-21T21:23:25.968Z,19.33
2023-03-21T21:25:54.065Z,19.20
2023-03-21T21:28:22.994Z,19.00
2023-03-21T21:30:56.389Z,18.07
2023-03-21T21:33:23.731Z,18.03
2023-03-21T21:35:53.552Z,16.33
2023-03-21T21:38:21.622Z,16.20
2023-03-21T21:40:49.712Z,15.40
2023-03-21T21:43:18.742Z,15.33
2023-03-21T21:45:49.059Z,13.40
2023-03-21T21:48:16.742Z,12.70
2023-03-21T21:50:44.283Z,12.40
2023-03-21T21:53:11.798Z,10.23
2023-03-21T21:55:40.775Z,10.83
2023-03-21T21:58:08.341Z,10.27
2023-03-21T22:00:36.965Z,10.20
2023-03-21T22:03:04.737Z,10.37
2023-03-21T22:05:32.138Z,10.37
2023-03-21T22:07:59.429Z,10.40
2023-03-21T22:10:27.531Z,10.03
2023-03-21T22:12:54.963Z,10.07
2023-03-21T22:15:23.753Z,10.87
2023-03-21T22:17:51.334Z,10.83
2023-03-21T22:20:19.780Z,10.90
2023-03-21T22:22:47.474Z,10.33
2023-03-21T22:25:15.721Z,10.70
2023-03-21T22:27:43.459Z,11.03
2023-03-21T22:30:13.395Z,9.53
2023-03-21T22:32:41.582Z,9.93
2023-03-21T22:35:09.376Z,9.70
2023-03-21T22:37:38.274Z,9.77
2023-03-21T22:40:08.127Z,8.73
2023-03-21T22:42:36.312Z,9.33
2023-03-21T22:45:05.616Z,8.83
2023-03-21T22:47:33.216Z,9.90
2023-03-21T22:50:00.576Z,9.97
2023-03-21T22:52:27.877Z,10.83
2023-03-21T22:54:56.166Z,9.67
2023-03-21T22:57:23.446Z,9.90
2023-03-21T22:59:50.951Z,9.63
2023-03-21T23:02:18.439Z,9.60
2023-03-21T23:04:45.963Z,8.90
2023-03-21T23:07:13.347Z,9.80
2023-03-21T23:09:40.706Z,9.63
2023-03-21T23:12:08.027Z,11.70
2023-03-21T23:14:35.432Z,11.83
2023-03-21T23:17:02.722Z,13.00
2023-03-21T23:19:31.091Z,12.10
2023-03-21T23:21:58.785Z,12.53
2023-03-21T23:24:26.371Z,12.70
2023-03-21T23:26:53.727Z,14.30
2023-03-21T23:29:21.068Z,14.00
2023-03-21T23:31:48.407Z,12.63
2023-03-21T23:34:15.797Z,12.93
2023-03-21T23:36:43.137Z,12.13
2023-03-21T23:39:10.496Z,13.30
2023-03-21T23:41:38.130Z,13.43
2023-03-21T23:44:05.914Z,12.40
2023-03-21T23:46:33.370Z,11.53
2023-03-21T23:49:00.847Z,11.73
2023-03-21T23:51:28.188Z,10.90
2023-03-21T23:53:56.292Z,11.27
2023-03-21T23:56:25.176Z,12.50
2023-03-21T23:58:52.594Z,10.97
